sensor_id;sensor_type;location;lat;lon;timestamp;P1;durP1;ratioP1;P2;durP2;ratioP2
71503;SDS011;59323;50.874;7.028;2023-07-02T00:01:44;5.88;;;2.10;;
71503;SDS011;59323;50.874;7.028;2023-07-02T00:04:10;9.87;;;2.47;;
71503;SDS011;59323;50.874;7.028;2023-07-02T00:06:38;6.78;;;2.35;;
71503;SDS011;59323;50.874;7.028;2023-07-02T00:09:06;6.93;;;2.40;;
71503;SDS011;59323;50.874;7.028;2023-07-02T00:11:32;6.97;;;2.50;;
71503;SDS011;59323;50.874;7.028;2023-07-02T00:13:57;5.23;;;1.93;;
71503;SDS011;59323;50.874;7.028;2023-07-02T00:16:22;8.60;;;2.00;;
71503;SDS011;59323;50.874;7.028;2023-07-02T00:18:48;8.85;;;2.88;;
71503;SDS011;59323;50.874;7.028;2023-07-02T00:21:17;6.17;;;2.30;;
71503;SDS011;59323;50.874;7.028;2023-07-02T00:23:44;7.15;;;2.33;;
71503;SDS011;59323;50.874;7.028;2023-07-02T00:26:09;8.07;;;3.33;;
71503;SDS011;59323;50.874;7.028;2023-07-02T00:28:35;9.60;;;2.30;;
71503;SDS011;59323;50.874;7.028;2023-07-02T00:31:00;7.03;;;2.30;;
71503;SDS011;59323;50.874;7.028;2023-07-02T00:33:27;7.05;;;2.58;;
71503;SDS011;59323;50.874;7.028;2023-07-02T00:35:53;8.07;;;2.60;;
71503;SDS011;59323;50.874;7.028;2023-07-02T00:38:19;6.20;;;2.00;;
71503;SDS011;59323;50.874;7.028;2023-07-02T00:40:44;6.87;;;2.23;;
71503;SDS011;59323;50.874;7.028;2023-07-02T00:43:10;6.27;;;2.30;;
71503;SDS011;59323;50.874;7.028;2023-07-02T00:45:38;6.27;;;2.90;;
71503;SDS011;59323;50.874;7.028;2023-07-02T00:48:04;6.93;;;2.65;;
71503;SDS011;59323;50.874;7.028;2023-07-02T00:50:32;7.70;;;2.17;;
71503;SDS011;59323;50.874;7.028;2023-07-02T00:52:58;7.23;;;2.33;;
71503;SDS011;59323;50.874;7.028;2023-07-02T00:55:24;7.15;;;2.78;;
71503;SDS011;59323;50.874;7.028;2023-07-02T00:57:49;8.17;;;2.60;;
71503;SDS011;59323;50.874;7.028;2023-07-02T01:00:15;7.65;;;2.42;;
71503;SDS011;59323;50.874;7.028;2023-07-02T01:02:41;9.25;;;2.83;;
71503;SDS011;59323;50.874;7.028;2023-07-02T01:05:16;7.60;;;2.80;;
71503;SDS011;59323;50.874;7.028;2023-07-02T01:07:41;8.50;;;2.90;;
71503;SDS011;59323;50.874;7.028;2023-07-02T01:10:09;13.10;;;3.10;;
71503;SDS011;59323;50.874;7.028;2023-07-02T01:12:38;10.27;;;3.30;;
71503;SDS011;59323;50.874;7.028;2023-07-02T01:15:07;9.40;;;3.33;;
71503;SDS011;59323;50.874;7.028;2023-07-02T01:17:33;11.75;;;3.80;;
71503;SDS011;59323;50.874;7.028;2023-07-02T01:20:07;11.35;;;3.78;;
71503;SDS011;59323;50.874;7.028;2023-07-02T01:22:39;8.63;;;2.87;;
71503;SDS011;59323;50.874;7.028;2023-07-02T01:25:05;10.63;;;3.67;;
71503;SDS011;59323;50.874;7.028;2023-07-02T01:27:34;12.05;;;3.90;;
71503;SDS011;59323;50.874;7.028;2023-07-02T01:30:01;11.80;;;4.07;;
71503;SDS011;59323;50.874;7.028;2023-07-02T01:32:26;12.63;;;4.63;;
71503;SDS011;59323;50.874;7.028;2023-07-02T01:35:03;12.55;;;4.28;;
71503;SDS011;59323;50.874;7.028;2023-07-02T01:37:44;13.80;;;4.40;;
71503;SDS011;59323;50.874;7.028;2023-07-02T01:40:29;10.60;;;4.00;;
71503;SDS011;59323;50.874;7.028;2023-07-02T01:43:01;12.23;;;3.87;;
71503;SDS011;59323;50.874;7.028;2023-07-02T01:45:26;12.85;;;4.45;;
71503;SDS011;59323;50.874;7.028;2023-07-02T01:47:52;14.40;;;5.30;;
71503;SDS011;59323;50.874;7.028;2023-07-02T01:50:17;14.53;;;4.83;;
71503;SDS011;59323;50.874;7.028;2023-07-02T01:52:47;13.60;;;5.03;;
71503;SDS011;59323;50.874;7.028;2023-07-02T01:55:15;17.90;;;5.78;;
71503;SDS011;59323;50.874;7.028;2023-07-02T01:57:45;15.48;;;5.75;;
71503;SDS011;59323;50.874;7.028;2023-07-02T02:00:17;16.93;;;5.53;;
71503;SDS011;59323;50.874;7.028;2023-07-02T02:02:42;15.73;;;6.10;;
71503;SDS011;59323;50.874;7.028;2023-07-02T02:05:08;15.73;;;5.50;;
71503;SDS011;59323;50.874;7.028;2023-07-02T02:07:37;15.53;;;7.07;;
71503;SDS011;59323;50.874;7.028;2023-07-02T02:10:17;16.48;;;6.15;;
71503;SDS011;59323;50.874;7.028;2023-07-02T02:12:54;17.60;;;5.68;;
71503;SDS011;59323;50.874;7.028;2023-07-02T02:15:23;21.77;;;6.37;;
71503;SDS011;59323;50.874;7.028;2023-07-02T02:17:55;17.27;;;6.40;;
71503;SDS011;59323;50.874;7.028;2023-07-02T02:20:25;20.92;;;7.35;;
71503;SDS011;59323;50.874;7.028;2023-07-02T02:22:51;18.33;;;7.00;;
71503;SDS011;59323;50.874;7.028;2023-07-02T02:25:20;17.70;;;7.37;;
71503;SDS011;59323;50.874;7.028;2023-07-02T02:27:58;20.42;;;6.75;;
71503;SDS011;59323;50.874;7.028;2023-07-02T02:30:31;19.10;;;6.53;;
71503;SDS011;59323;50.874;7.028;2023-07-02T02:33:07;14.93;;;6.38;;
71503;SDS011;59323;50.874;7.028;2023-07-02T02:35:38;17.70;;;6.60;;
71503;SDS011;59323;50.874;7.028;2023-07-02T02:38:09;18.97;;;6.80;;
71503;SDS011;59323;50.874;7.028;2023-07-02T02:43:44;15.70;;;6.30;;
71503;SDS011;59323;50.874;7.028;2023-07-02T02:46:29;17.35;;;6.78;;
71503;SDS011;59323;50.874;7.028;2023-07-02T02:49:08;21.05;;;7.60;;
71503;SDS011;59323;50.874;7.028;2023-07-02T02:51:36;19.47;;;7.30;;
71503;SDS011;59323;50.874;7.028;2023-07-02T02:54:02;23.10;;;7.15;;
71503;SDS011;59323;50.874;7.028;2023-07-02T02:56:30;24.00;;;7.53;;
71503;SDS011;59323;50.874;7.028;2023-07-02T02:58:59;22.08;;;7.63;;
71503;SDS011;59323;50.874;7.028;2023-07-02T03:01:27;20.07;;;7.10;;
71503;SDS011;59323;50.874;7.028;2023-07-02T03:03:55;17.70;;;7.50;;
71503;SDS011;59323;50.874;7.028;2023-07-02T03:06:22;17.63;;;7.33;;
71503;SDS011;59323;50.874;7.028;2023-07-02T03:08:54;19.40;;;6.55;;
71503;SDS011;59323;50.874;7.028;2023-07-02T03:11:28;17.35;;;7.53;;
71503;SDS011;59323;50.874;7.028;2023-07-02T03:14:28;19.83;;;7.55;;
71503;SDS011;59323;50.874;7.028;2023-07-02T03:16:57;21.77;;;7.45;;
71503;SDS011;59323;50.874;7.028;2023-07-02T03:19:32;18.63;;;6.87;;
71503;SDS011;59323;50.874;7.028;2023-07-02T03:22:08;21.02;;;7.97;;
71503;SDS011;59323;50.874;7.028;2023-07-02T03:24:37;20.38;;;7.85;;
71503;SDS011;59323;50.874;7.028;2023-07-02T03:27:28;21.88;;;8.15;;
71503;SDS011;59323;50.874;7.028;2023-07-02T03:30:02;21.40;;;8.17;;
71503;SDS011;59323;50.874;7.028;2023-07-02T03:32:44;20.23;;;8.52;;
71503;SDS011;59323;50.874;7.028;2023-07-02T03:35:10;22.53;;;7.90;;
71503;SDS011;59323;50.874;7.028;2023-07-02T03:37:50;17.65;;;7.93;;
71503;SDS011;59323;50.874;7.028;2023-07-02T03:40:17;20.88;;;8.02;;
71503;SDS011;59323;50.874;7.028;2023-07-02T03:42:59;24.25;;;8.55;;
71503;SDS011;59323;50.874;7.028;2023-07-02T03:45:25;20.60;;;8.25;;
71503;SDS011;59323;50.874;7.028;2023-07-02T03:50:47;18.33;;;7.25;;
71503;SDS011;59323;50.874;7.028;2023-07-02T03:53:18;23.50;;;8.63;;
71503;SDS011;59323;50.874;7.028;2023-07-02T03:55:53;19.92;;;8.02;;
71503;SDS011;59323;50.874;7.028;2023-07-02T03:58:26;22.80;;;8.47;;
71503;SDS011;59323;50.874;7.028;2023-07-02T04:01:00;20.45;;;7.57;;
71503;SDS011;59323;50.874;7.028;2023-07-02T04:03:48;23.73;;;8.90;;
71503;SDS011;59323;50.874;7.028;2023-07-02T04:06:21;22.60;;;8.85;;
71503;SDS011;59323;50.874;7.028;2023-07-02T04:12:19;20.83;;;8.07;;
71503;SDS011;59323;50.874;7.028;2023-07-02T04:15:26;29.17;;;8.48;;
71503;SDS011;59323;50.874;7.028;2023-07-02T04:17:57;26.80;;;9.25;;
71503;SDS011;59323;50.874;7.028;2023-07-02T04:20:26;24.33;;;9.07;;
71503;SDS011;59323;50.874;7.028;2023-07-02T04:22:56;21.75;;;9.15;;
71503;SDS011;59323;50.874;7.028;2023-07-02T04:25:25;24.20;;;8.83;;
71503;SDS011;59323;50.874;7.028;2023-07-02T04:27:53;21.58;;;8.55;;
71503;SDS011;59323;50.874;7.028;2023-07-02T04:30:29;21.05;;;9.38;;
71503;SDS011;59323;50.874;7.028;2023-07-02T04:32:55;24.67;;;8.80;;
71503;SDS011;59323;50.874;7.028;2023-07-02T04:35:39;25.77;;;10.45;;
71503;SDS011;59323;50.874;7.028;2023-07-02T04:38:05;22.33;;;9.80;;
71503;SDS011;59323;50.874;7.028;2023-07-02T04:40:43;25.50;;;10.30;;
71503;SDS011;59323;50.874;7.028;2023-07-02T04:43:28;25.08;;;11.18;;
71503;SDS011;59323;50.874;7.028;2023-07-02T04:45:54;30.55;;;10.98;;
71503;SDS011;59323;50.874;7.028;2023-07-02T04:48:20;26.20;;;10.02;;
71503;SDS011;59323;50.874;7.028;2023-07-02T04:50:49;26.67;;;9.80;;
71503;SDS011;59323;50.874;7.028;2023-07-02T04:53:15;25.40;;;10.48;;
71503;SDS011;59323;50.874;7.028;2023-07-02T04:55:41;27.60;;;10.97;;
71503;SDS011;59323;50.874;7.028;2023-07-02T04:58:09;31.48;;;10.93;;
71503;SDS011;59323;50.874;7.028;2023-07-02T05:00:35;29.47;;;10.70;;
71503;SDS011;59323;50.874;7.028;2023-07-02T05:03:09;27.25;;;11.48;;
71503;SDS011;59323;50.874;7.028;2023-07-02T05:05:35;25.50;;;10.90;;
71503;SDS011;59323;50.874;7.028;2023-07-02T05:08:00;26.88;;;11.63;;
71503;SDS011;59323;50.874;7.028;2023-07-02T05:10:29;32.42;;;11.65;;
71503;SDS011;59323;50.874;7.028;2023-07-02T05:12:55;25.97;;;10.77;;
71503;SDS011;59323;50.874;7.028;2023-07-02T05:15:23;26.67;;;11.00;;
71503;SDS011;59323;50.874;7.028;2023-07-02T05:17:52;30.23;;;11.43;;
71503;SDS011;59323;50.874;7.028;2023-07-02T05:20:18;28.58;;;10.80;;
71503;SDS011;59323;50.874;7.028;2023-07-02T05:22:43;25.57;;;11.47;;
71503;SDS011;59323;50.874;7.028;2023-07-02T05:25:12;28.95;;;11.40;;
71503;SDS011;59323;50.874;7.028;2023-07-02T05:28:08;27.48;;;11.77;;
71503;SDS011;59323;50.874;7.028;2023-07-02T05:30:34;35.50;;;11.20;;
71503;SDS011;59323;50.874;7.028;2023-07-02T05:33:00;29.63;;;11.20;;
71503;SDS011;59323;50.874;7.028;2023-07-02T05:35:44;27.40;;;11.70;;
71503;SDS011;59323;50.874;7.028;2023-07-02T05:38:49;34.70;;;11.75;;
71503;SDS011;59323;50.874;7.028;2023-07-02T05:41:32;31.37;;;11.77;;
71503;SDS011;59323;50.874;7.028;2023-07-02T05:44:27;33.40;;;11.45;;
71503;SDS011;59323;50.874;7.028;2023-07-02T05:50:11;31.17;;;11.83;;
71503;SDS011;59323;50.874;7.028;2023-07-02T05:53:12;29.52;;;12.52;;
71503;SDS011;59323;50.874;7.028;2023-07-02T05:55:43;29.65;;;11.90;;
71503;SDS011;59323;50.874;7.028;2023-07-02T05:58:19;31.58;;;12.88;;
71503;SDS011;59323;50.874;7.028;2023-07-02T06:01:10;33.42;;;12.93;;
71503;SDS011;59323;50.874;7.028;2023-07-02T06:06:51;35.42;;;13.02;;
71503;SDS011;59323;50.874;7.028;2023-07-02T06:12:23;34.88;;;12.00;;
71503;SDS011;59323;50.874;7.028;2023-07-02T06:14:51;32.40;;;11.37;;
71503;SDS011;59323;50.874;7.028;2023-07-02T06:17:43;31.80;;;12.95;;
71503;SDS011;59323;50.874;7.028;2023-07-02T06:20:19;34.38;;;12.88;;
71503;SDS011;59323;50.874;7.028;2023-07-02T06:22:53;27.42;;;11.35;;
71503;SDS011;59323;50.874;7.028;2023-07-02T06:25:24;31.10;;;11.53;;
71503;SDS011;59323;50.874;7.028;2023-07-02T06:28:07;35.63;;;13.05;;
71503;SDS011;59323;50.874;7.028;2023-07-02T06:31:02;33.27;;;12.63;;
71503;SDS011;59323;50.874;7.028;2023-07-02T06:33:39;28.20;;;11.38;;
71503;SDS011;59323;50.874;7.028;2023-07-02T06:36:44;29.67;;;11.82;;
71503;SDS011;59323;50.874;7.028;2023-07-02T06:39:18;29.70;;;11.90;;
71503;SDS011;59323;50.874;7.028;2023-07-02T06:41:55;29.90;;;12.60;;
71503;SDS011;59323;50.874;7.028;2023-07-02T06:44:34;31.27;;;11.47;;
71503;SDS011;59323;50.874;7.028;2023-07-02T06:47:02;29.85;;;11.90;;
71503;SDS011;59323;50.874;7.028;2023-07-02T06:49:35;28.40;;;11.73;;
71503;SDS011;59323;50.874;7.028;2023-07-02T06:52:27;33.90;;;12.38;;
71503;SDS011;59323;50.874;7.028;2023-07-02T06:55:12;27.60;;;11.52;;
71503;SDS011;59323;50.874;7.028;2023-07-02T06:58:12;25.83;;;11.18;;
71503;SDS011;59323;50.874;7.028;2023-07-02T07:00:56;33.17;;;11.93;;
71503;SDS011;59323;50.874;7.028;2023-07-02T07:03:25;30.13;;;11.43;;
71503;SDS011;59323;50.874;7.028;2023-07-02T07:06:02;29.45;;;11.30;;
71503;SDS011;59323;50.874;7.028;2023-07-02T07:11:47;27.57;;;11.37;;
71503;SDS011;59323;50.874;7.028;2023-07-02T07:14:21;27.42;;;10.68;;
71503;SDS011;59323;50.874;7.028;2023-07-02T07:17:04;30.85;;;10.63;;
71503;SDS011;59323;50.874;7.028;2023-07-02T07:19:32;25.50;;;10.70;;
71503;SDS011;59323;50.874;7.028;2023-07-02T07:21:57;31.37;;;11.40;;
71503;SDS011;59323;50.874;7.028;2023-07-02T07:24:31;25.13;;;10.53;;
71503;SDS011;59323;50.874;7.028;2023-07-02T07:27:05;27.73;;;10.85;;
71503;SDS011;59323;50.874;7.028;2023-07-02T07:30:04;29.10;;;10.98;;
71503;SDS011;59323;50.874;7.028;2023-07-02T07:32:52;29.35;;;11.85;;
71503;SDS011;59323;50.874;7.028;2023-07-02T07:35:26;31.60;;;11.37;;
71503;SDS011;59323;50.874;7.028;2023-07-02T07:40:56;30.55;;;11.15;;
71503;SDS011;59323;50.874;7.028;2023-07-02T07:47:14;30.17;;;11.27;;
71503;SDS011;59323;50.874;7.028;2023-07-02T07:49:42;31.90;;;11.30;;
71503;SDS011;59323;50.874;7.028;2023-07-02T07:52:22;24.70;;;9.68;;
71503;SDS011;59323;50.874;7.028;2023-07-02T07:57:16;27.15;;;9.48;;
71503;SDS011;59323;50.874;7.028;2023-07-02T07:59:41;23.33;;;9.30;;
71503;SDS011;59323;50.874;7.028;2023-07-02T08:02:07;25.57;;;10.30;;
71503;SDS011;59323;50.874;7.028;2023-07-02T08:04:32;24.47;;;9.10;;
71503;SDS011;59323;50.874;7.028;2023-07-02T08:06:57;25.02;;;9.25;;
71503;SDS011;59323;50.874;7.028;2023-07-02T08:09:23;25.93;;;8.90;;
71503;SDS011;59323;50.874;7.028;2023-07-02T08:11:49;24.00;;;9.05;;
71503;SDS011;59323;50.874;7.028;2023-07-02T08:14:16;27.30;;;8.93;;
71503;SDS011;59323;50.874;7.028;2023-07-02T08:16:41;27.45;;;9.57;;
71503;SDS011;59323;50.874;7.028;2023-07-02T08:19:07;21.90;;;9.10;;
71503;SDS011;59323;50.874;7.028;2023-07-02T08:21:32;24.42;;;9.82;;
71503;SDS011;59323;50.874;7.028;2023-07-02T08:24:00;24.20;;;9.00;;
71503;SDS011;59323;50.874;7.028;2023-07-02T08:26:26;24.73;;;9.45;;
71503;SDS011;59323;50.874;7.028;2023-07-02T08:28:51;26.63;;;9.07;;
71503;SDS011;59323;50.874;7.028;2023-07-02T08:31:16;24.03;;;10.10;;
71503;SDS011;59323;50.874;7.028;2023-07-02T08:33:42;22.40;;;9.53;;
71503;SDS011;59323;50.874;7.028;2023-07-02T08:36:07;27.93;;;10.10;;
71503;SDS011;59323;50.874;7.028;2023-07-02T08:38:33;26.30;;;9.13;;
71503;SDS011;59323;50.874;7.028;2023-07-02T08:40:58;23.70;;;9.63;;
71503;SDS011;59323;50.874;7.028;2023-07-02T08:43:23;28.90;;;10.23;;
71503;SDS011;59323;50.874;7.028;2023-07-02T08:45:51;28.35;;;10.63;;
71503;SDS011;59323;50.874;7.028;2023-07-02T08:48:17;25.35;;;10.23;;
71503;SDS011;59323;50.874;7.028;2023-07-02T08:50:47;26.60;;;9.97;;
71503;SDS011;59323;50.874;7.028;2023-07-02T08:53:14;25.83;;;10.43;;
71503;SDS011;59323;50.874;7.028;2023-07-02T08:55:39;25.40;;;10.02;;
71503;SDS011;59323;50.874;7.028;2023-07-02T08:58:05;30.27;;;10.27;;
71503;SDS011;59323;50.874;7.028;2023-07-02T09:00:30;27.20;;;10.67;;
71503;SDS011;59323;50.874;7.028;2023-07-02T09:03:10;25.88;;;10.60;;
71503;SDS011;59323;50.874;7.028;2023-07-02T09:05:47;23.67;;;10.70;;
71503;SDS011;59323;50.874;7.028;2023-07-02T09:08:24;33.97;;;10.33;;
71503;SDS011;59323;50.874;7.028;2023-07-02T09:10:50;29.95;;;10.98;;
71503;SDS011;59323;50.874;7.028;2023-07-02T09:13:15;27.73;;;10.23;;
71503;SDS011;59323;50.874;7.028;2023-07-02T09:15:41;26.47;;;10.63;;
71503;SDS011;59323;50.874;7.028;2023-07-02T09:20:45;26.30;;;9.80;;
71503;SDS011;59323;50.874;7.028;2023-07-02T09:23:11;27.17;;;10.40;;
71503;SDS011;59323;50.874;7.028;2023-07-02T09:25:38;30.92;;;10.68;;
71503;SDS011;59323;50.874;7.028;2023-07-02T09:28:14;27.13;;;10.88;;
71503;SDS011;59323;50.874;7.028;2023-07-02T09:30:50;28.17;;;11.10;;
71503;SDS011;59323;50.874;7.028;2023-07-02T09:33:20;28.10;;;11.15;;
71503;SDS011;59323;50.874;7.028;2023-07-02T09:36:06;24.48;;;10.63;;
71503;SDS011;59323;50.874;7.028;2023-07-02T09:38:41;24.23;;;10.85;;
71503;SDS011;59323;50.874;7.028;2023-07-02T09:45:03;24.60;;;9.20;;
71503;SDS011;59323;50.874;7.028;2023-07-02T09:48:42;25.05;;;10.18;;
71503;SDS011;59323;50.874;7.028;2023-07-02T09:51:43;23.73;;;9.02;;
71503;SDS011;59323;50.874;7.028;2023-07-02T09:54:42;27.63;;;9.30;;
71503;SDS011;59323;50.874;7.028;2023-07-02T09:57:08;26.73;;;10.90;;
71503;SDS011;59323;50.874;7.028;2023-07-02T09:59:33;25.50;;;9.83;;
71503;SDS011;59323;50.874;7.028;2023-07-02T10:01:59;28.83;;;9.95;;
71503;SDS011;59323;50.874;7.028;2023-07-02T10:04:24;28.53;;;10.90;;
71503;SDS011;59323;50.874;7.028;2023-07-02T10:06:54;29.50;;;10.87;;
71503;SDS011;59323;50.874;7.028;2023-07-02T10:09:20;26.75;;;10.32;;
71503;SDS011;59323;50.874;7.028;2023-07-02T10:11:59;27.77;;;11.10;;
71503;SDS011;59323;50.874;7.028;2023-07-02T10:14:24;26.00;;;10.17;;
71503;SDS011;59323;50.874;7.028;2023-07-02T10:16:53;26.80;;;9.97;;
71503;SDS011;59323;50.874;7.028;2023-07-02T10:19:21;27.88;;;10.07;;
71503;SDS011;59323;50.874;7.028;2023-07-02T10:21:48;22.40;;;10.48;;
71503;SDS011;59323;50.874;7.028;2023-07-02T10:24:27;22.70;;;9.40;;
71503;SDS011;59323;50.874;7.028;2023-07-02T10:27:00;20.63;;;10.02;;
71503;SDS011;59323;50.874;7.028;2023-07-02T10:29:28;24.37;;;10.10;;
71503;SDS011;59323;50.874;7.028;2023-07-02T10:31:54;27.20;;;10.60;;
71503;SDS011;59323;50.874;7.028;2023-07-02T10:34:54;23.17;;;10.05;;
71503;SDS011;59323;50.874;7.028;2023-07-02T10:37:12;27.52;;;10.38;;
71503;SDS011;59323;50.874;7.028;2023-07-02T10:39:38;25.70;;;10.00;;
71503;SDS011;59323;50.874;7.028;2023-07-02T10:42:08;21.58;;;9.20;;
71503;SDS011;59323;50.874;7.028;2023-07-02T10:44:46;24.30;;;9.17;;
71503;SDS011;59323;50.874;7.028;2023-07-02T10:47:13;21.60;;;9.63;;
71503;SDS011;59323;50.874;7.028;2023-07-02T10:49:38;21.00;;;8.47;;
71503;SDS011;59323;50.874;7.028;2023-07-02T10:52:04;18.48;;;8.45;;
71503;SDS011;59323;50.874;7.028;2023-07-02T10:54:46;19.20;;;8.27;;
71503;SDS011;59323;50.874;7.028;2023-07-02T10:57:16;22.30;;;9.25;;
71503;SDS011;59323;50.874;7.028;2023-07-02T10:59:45;19.63;;;9.07;;
71503;SDS011;59323;50.874;7.028;2023-07-02T11:02:10;20.27;;;8.50;;
71503;SDS011;59323;50.874;7.028;2023-07-02T11:04:36;20.53;;;8.53;;
71503;SDS011;59323;50.874;7.028;2023-07-02T11:07:03;22.23;;;9.20;;
71503;SDS011;59323;50.874;7.028;2023-07-02T11:09:29;21.15;;;8.40;;
71503;SDS011;59323;50.874;7.028;2023-07-02T11:11:58;24.37;;;9.40;;
71503;SDS011;59323;50.874;7.028;2023-07-02T11:14:32;23.80;;;8.70;;
71503;SDS011;59323;50.874;7.028;2023-07-02T11:16:59;22.90;;;7.85;;
71503;SDS011;59323;50.874;7.028;2023-07-02T11:19:28;23.17;;;9.27;;
71503;SDS011;59323;50.874;7.028;2023-07-02T11:21:54;23.43;;;8.57;;
71503;SDS011;59323;50.874;7.028;2023-07-02T11:24:27;23.83;;;9.63;;
71503;SDS011;59323;50.874;7.028;2023-07-02T11:26:57;28.30;;;9.05;;
71503;SDS011;59323;50.874;7.028;2023-07-02T11:29:23;22.67;;;8.60;;
71503;SDS011;59323;50.874;7.028;2023-07-02T11:31:49;23.90;;;9.37;;
71503;SDS011;59323;50.874;7.028;2023-07-02T11:34:16;23.50;;;9.25;;
71503;SDS011;59323;50.874;7.028;2023-07-02T11:36:43;23.67;;;9.23;;
71503;SDS011;59323;50.874;7.028;2023-07-02T11:39:09;26.75;;;9.43;;
71503;SDS011;59323;50.874;7.028;2023-07-02T11:41:38;19.07;;;8.43;;
71503;SDS011;59323;50.874;7.028;2023-07-02T11:44:04;23.30;;;8.55;;
71503;SDS011;59323;50.874;7.028;2023-07-02T11:46:29;22.10;;;9.37;;
71503;SDS011;59323;50.874;7.028;2023-07-02T11:48:55;28.27;;;9.10;;
71503;SDS011;59323;50.874;7.028;2023-07-02T11:51:20;23.17;;;9.97;;
71503;SDS011;59323;50.874;7.028;2023-07-02T11:53:46;25.67;;;9.40;;
71503;SDS011;59323;50.874;7.028;2023-07-02T11:56:12;25.70;;;7.93;;
71503;SDS011;59323;50.874;7.028;2023-07-02T11:58:38;21.50;;;8.18;;
71503;SDS011;59323;50.874;7.028;2023-07-02T12:01:07;18.65;;;7.90;;
71503;SDS011;59323;50.874;7.028;2023-07-02T12:03:32;25.33;;;9.07;;
71503;SDS011;59323;50.874;7.028;2023-07-02T12:05:57;23.73;;;8.43;;
71503;SDS011;59323;50.874;7.028;2023-07-02T12:08:23;25.87;;;8.40;;
71503;SDS011;59323;50.874;7.028;2023-07-02T12:10:48;20.73;;;8.20;;
71503;SDS011;59323;50.874;7.028;2023-07-02T12:13:14;20.23;;;8.50;;
71503;SDS011;59323;50.874;7.028;2023-07-02T12:15:39;21.63;;;7.77;;
71503;SDS011;59323;50.874;7.028;2023-07-02T12:18:05;15.75;;;7.10;;
71503;SDS011;59323;50.874;7.028;2023-07-02T12:20:31;24.77;;;7.87;;
71503;SDS011;59323;50.874;7.028;2023-07-02T12:22:56;21.63;;;7.93;;
71503;SDS011;59323;50.874;7.028;2023-07-02T12:25:22;18.90;;;7.17;;
71503;SDS011;59323;50.874;7.028;2023-07-02T12:27:47;19.03;;;8.60;;
71503;SDS011;59323;50.874;7.028;2023-07-02T12:30:13;24.43;;;8.03;;
71503;SDS011;59323;50.874;7.028;2023-07-02T12:32:42;18.38;;;7.25;;
71503;SDS011;59323;50.874;7.028;2023-07-02T12:35:08;22.37;;;8.03;;
71503;SDS011;59323;50.874;7.028;2023-07-02T12:37:34;22.13;;;8.52;;
71503;SDS011;59323;50.874;7.028;2023-07-02T12:39:59;20.33;;;7.97;;
71503;SDS011;59323;50.874;7.028;2023-07-02T12:42:25;20.10;;;7.90;;
71503;SDS011;59323;50.874;7.028;2023-07-02T12:44:50;19.55;;;7.88;;
71503;SDS011;59323;50.874;7.028;2023-07-02T12:47:16;20.07;;;8.70;;
71503;SDS011;59323;50.874;7.028;2023-07-02T12:49:41;16.93;;;7.33;;
71503;SDS011;59323;50.874;7.028;2023-07-02T12:52:07;22.57;;;8.30;;
71503;SDS011;59323;50.874;7.028;2023-07-02T12:54:32;20.42;;;7.70;;
71503;SDS011;59323;50.874;7.028;2023-07-02T12:56:57;20.17;;;7.93;;
71503;SDS011;59323;50.874;7.028;2023-07-02T12:59:23;21.03;;;8.07;;
71503;SDS011;59323;50.874;7.028;2023-07-02T13:01:48;17.80;;;6.53;;
71503;SDS011;59323;50.874;7.028;2023-07-02T13:04:13;17.70;;;6.50;;
71503;SDS011;59323;50.874;7.028;2023-07-02T13:06:40;19.08;;;7.60;;
71503;SDS011;59323;50.874;7.028;2023-07-02T13:09:09;16.05;;;7.22;;
71503;SDS011;59323;50.874;7.028;2023-07-02T13:11:34;19.37;;;7.03;;
71503;SDS011;59323;50.874;7.028;2023-07-02T13:13:59;18.52;;;8.05;;
71503;SDS011;59323;50.874;7.028;2023-07-02T13:16:25;21.23;;;8.73;;
71503;SDS011;59323;50.874;7.028;2023-07-02T13:18:51;18.03;;;7.17;;
71503;SDS011;59323;50.874;7.028;2023-07-02T13:21:17;17.98;;;7.47;;
71503;SDS011;59323;50.874;7.028;2023-07-02T13:23:43;19.55;;;7.47;;
71503;SDS011;59323;50.874;7.028;2023-07-02T13:26:08;18.10;;;7.40;;
71503;SDS011;59323;50.874;7.028;2023-07-02T13:28:34;19.43;;;7.33;;
71503;SDS011;59323;50.874;7.028;2023-07-02T13:30:59;21.90;;;7.70;;
71503;SDS011;59323;50.874;7.028;2023-07-02T13:33:24;20.90;;;8.30;;
71503;SDS011;59323;50.874;7.028;2023-07-02T13:35:51;23.73;;;7.90;;
71503;SDS011;59323;50.874;7.028;2023-07-02T13:38:16;21.90;;;8.13;;
71503;SDS011;59323;50.874;7.028;2023-07-02T13:40:41;19.93;;;8.00;;
71503;SDS011;59323;50.874;7.028;2023-07-02T13:43:07;18.58;;;7.95;;
71503;SDS011;59323;50.874;7.028;2023-07-02T13:45:32;21.80;;;8.13;;
71503;SDS011;59323;50.874;7.028;2023-07-02T13:47:57;20.03;;;7.07;;
71503;SDS011;59323;50.874;7.028;2023-07-02T13:50:23;20.20;;;8.40;;
71503;SDS011;59323;50.874;7.028;2023-07-02T13:52:48;17.97;;;7.97;;
71503;SDS011;59323;50.874;7.028;2023-07-02T13:55:14;22.15;;;8.02;;
71503;SDS011;59323;50.874;7.028;2023-07-02T13:57:40;21.47;;;8.57;;
71503;SDS011;59323;50.874;7.028;2023-07-02T14:00:05;18.13;;;8.00;;
71503;SDS011;59323;50.874;7.028;2023-07-02T14:02:31;19.63;;;8.07;;
71503;SDS011;59323;50.874;7.028;2023-07-02T14:04:57;20.13;;;8.68;;
71503;SDS011;59323;50.874;7.028;2023-07-02T14:07:23;20.57;;;8.50;;
71503;SDS011;59323;50.874;7.028;2023-07-02T14:09:49;20.45;;;8.13;;
71503;SDS011;59323;50.874;7.028;2023-07-02T14:12:14;20.13;;;8.43;;
71503;SDS011;59323;50.874;7.028;2023-07-02T14:14:40;28.90;;;8.63;;
71503;SDS011;59323;50.874;7.028;2023-07-02T14:17:05;20.07;;;8.53;;
71503;SDS011;59323;50.874;7.028;2023-07-02T14:19:31;23.63;;;8.02;;
71503;SDS011;59323;50.874;7.028;2023-07-02T14:21:57;20.87;;;8.33;;
71503;SDS011;59323;50.874;7.028;2023-07-02T14:24:23;19.90;;;8.48;;
71503;SDS011;59323;50.874;7.028;2023-07-02T14:26:48;19.33;;;8.57;;
71503;SDS011;59323;50.874;7.028;2023-07-02T14:29:14;18.83;;;7.60;;
71503;SDS011;59323;50.874;7.028;2023-07-02T14:31:39;22.37;;;8.30;;
71503;SDS011;59323;50.874;7.028;2023-07-02T14:34:05;19.98;;;8.35;;
71503;SDS011;59323;50.874;7.028;2023-07-02T14:36:30;20.60;;;7.80;;
71503;SDS011;59323;50.874;7.028;2023-07-02T14:38:55;22.37;;;8.43;;
71503;SDS011;59323;50.874;7.028;2023-07-02T14:41:21;22.37;;;7.97;;
71503;SDS011;59323;50.874;7.028;2023-07-02T14:43:46;19.23;;;8.13;;
71503;SDS011;59323;50.874;7.028;2023-07-02T14:46:12;19.20;;;7.70;;
71503;SDS011;59323;50.874;7.028;2023-07-02T14:48:37;17.53;;;7.47;;
71503;SDS011;59323;50.874;7.028;2023-07-02T14:51:03;19.40;;;8.17;;
71503;SDS011;59323;50.874;7.028;2023-07-02T14:53:29;19.02;;;7.60;;
71503;SDS011;59323;50.874;7.028;2023-07-02T14:55:57;22.63;;;8.55;;
71503;SDS011;59323;50.874;7.028;2023-07-02T14:58:24;19.47;;;8.00;;
71503;SDS011;59323;50.874;7.028;2023-07-02T15:00:52;19.80;;;8.13;;
71503;SDS011;59323;50.874;7.028;2023-07-02T15:03:19;21.77;;;7.95;;
71503;SDS011;59323;50.874;7.028;2023-07-02T15:05:48;21.38;;;7.95;;
71503;SDS011;59323;50.874;7.028;2023-07-02T15:08:17;22.70;;;7.75;;
71503;SDS011;59323;50.874;7.028;2023-07-02T15:11:08;19.40;;;7.37;;
71503;SDS011;59323;50.874;7.028;2023-07-02T15:13:39;19.58;;;7.85;;
71503;SDS011;59323;50.874;7.028;2023-07-02T15:22:12;20.60;;;8.10;;
71503;SDS011;59323;50.874;7.028;2023-07-02T15:24:41;20.93;;;7.23;;
71503;SDS011;59323;50.874;7.028;2023-07-02T15:27:07;18.92;;;7.75;;
71503;SDS011;59323;50.874;7.028;2023-07-02T15:32:22;16.77;;;7.53;;
71503;SDS011;59323;50.874;7.028;2023-07-02T15:34:48;21.15;;;8.00;;
71503;SDS011;59323;50.874;7.028;2023-07-02T15:37:13;20.03;;;8.47;;